Time;durP1;ratioP1;P1;durP2;ratioP2;P2;SDS_P1;SDS_P2;PMS_P1;PMS_P2;Temp;Humidity;BMP_temperature;BMP_pressure;BME280_temperature;BME280_humidity;BME280_pressure;Samples;Min_cycle;Max_cycle;Signal;HPM_P1;HPM_P2
2023/09/16 00:01:37;;;;;;;23.17;20.80;;;;;;;18.74;100.00;93223.88;5072549;28;20217;-90
2023/09/16 00:04:03;;;;;;;24.37;21.37;;;;;;;18.80;100.00;93217.34;5072849;28;20209;-89
2023/09/16 00:06:29;;;;;;;25.00;21.73;;;;;;;18.85;100.00;93219.78;5059510;28;20310;-90
2023/09/16 00:08:54;;;;;;;23.20;20.70;;;;;;;18.85;100.00;93211.84;5052864;28;20186;-85
2023/09/16 00:11:21;;;;;;;26.13;22.07;;;;;;;18.71;100.00;93208.59;5052495;28;20227;-91
2023/09/16 00:13:46;;;;;;;25.07;22.53;;;;;;;18.70;100.00;93207.06;5053024;28;20184;-91
2023/09/16 00:16:15;;;;;;;25.10;21.93;;;;;;;18.66;100.00;93206.16;5063113;28;20938;-91
2023/09/16 00:18:40;;;;;;;23.77;21.27;;;;;;;18.71;100.00;93198.03;5072979;28;20218;-91
2023/09/16 00:21:06;;;;;;;25.10;22.43;;;;;;;18.77;100.00;93202.09;5062431;28;20312;-88
2023/09/16 00:23:31;;;;;;;23.67;21.27;;;;;;;18.79;100.00;93205.97;5052855;28;21068;-90
2023/09/16 00:25:57;;;;;;;24.77;22.00;;;;;;;18.39;100.00;93170.22;5060473;28;20235;-90
2023/09/16 00:28:25;;;;;;;24.73;22.07;;;;;;;18.68;100.00;93209.25;5072183;28;20187;-89
2023/09/16 00:30:51;;;;;;;25.50;22.40;;;;;;;18.70;100.00;93201.78;5071597;28;20222;-83
2023/09/16 00:33:16;;;;;;;26.07;22.20;;;;;;;18.33;100.00;93205.03;5072568;28;20897;-89
2023/09/16 00:35:42;;;;;;;26.27;22.20;;;;;;;18.31;100.00;93200.06;5066081;28;20223;-87
2023/09/16 00:38:08;;;;;;;25.43;22.73;;;;;;;18.62;100.00;93211.28;5052592;28;20183;-90
2023/09/16 00:40:34;;;;;;;25.70;22.97;;;;;;;18.59;100.00;93211.13;5051069;28;20224;-85
2023/09/16 00:43:00;;;;;;;23.87;21.37;;;;;;;18.48;100.00;93212.53;5052470;28;20199;-90
2023/09/16 00:45:25;;;;;;;24.37;21.87;;;;;;;18.58;100.00;93217.50;5055375;28;20249;-90
2023/09/16 00:47:51;;;;;;;25.43;22.87;;;;;;;18.66;100.00;93228.06;5072163;28;20248;-90
2023/09/16 00:50:17;;;;;;;24.87;22.30;;;;;;;18.56;100.00;93224.97;5068290;28;20239;-84
2023/09/16 00:52:50;;;;;;;25.57;23.07;;;;;;;18.65;100.00;93233.66;5052139;28;20186;-91
2023/09/16 00:55:16;;;;;;;24.57;22.17;;;;;;;18.60;100.00;93241.78;5054169;28;20231;-90
2023/09/16 00:57:46;;;;;;;27.10;22.37;;;;;;;18.61;100.00;93224.81;5072565;28;20180;-90
2023/09/16 01:00:12;;;;;;;26.30;23.43;;;;;;;18.38;100.00;93226.06;5070845;28;20188;-90
2023/09/16 01:02:37;;;;;;;24.80;22.20;;;;;;;18.49;100.00;93225.44;5071852;28;20183;-92
2023/09/16 01:05:05;;;;;;;25.60;23.10;;;;;;;18.31;100.00;93210.63;5071328;28;20453;-90
2023/09/16 01:07:31;;;;;;;25.73;23.03;;;;;;;18.42;100.00;93213.78;5072120;28;20246;-91
2023/09/16 01:09:56;;;;;;;22.70;20.17;;;;;;;18.59;100.00;93205.84;5071175;28;20188;-77
2023/09/16 01:12:21;;;;;;;23.97;21.40;;;;;;;18.57;100.00;93206.13;5070840;28;20180;-91
2023/09/16 01:14:47;;;;;;;24.20;21.60;;;;;;;18.43;100.00;93202.88;5071661;28;20225;-89
2023/09/16 01:17:23;;;;;;;25.40;22.70;;;;;;;18.35;100.00;93187.00;5071528;28;20228;-89
2023/09/16 01:20:01;;;;;;;25.30;22.07;;;;;;;18.47;100.00;93189.81;5071586;28;20173;-91
2023/09/16 01:22:27;;;;;;;24.73;22.10;;;;;;;18.50;100.00;93186.56;5071405;28;20201;-91
2023/09/16 01:24:54;;;;;;;23.73;20.93;;;;;;;18.45;100.00;93189.34;5071904;28;20163;-85
2023/09/16 01:27:20;;;;;;;24.40;21.93;;;;;;;18.39;100.00;93190.59;5071775;28;20220;-89
2023/09/16 01:29:46;;;;;;;24.03;21.60;;;;;;;18.45;100.00;93187.50;5071448;28;20251;-89
2023/09/16 01:32:15;;;;;;;23.77;21.40;;;;;;;18.26;100.00;93181.72;5070859;28;20250;-88
2023/09/16 01:34:44;;;;;;;23.50;20.93;;;;;;;18.29;100.00;93177.69;5071815;28;20202;-89
2023/09/16 01:37:15;;;;;;;23.33;20.93;;;;;;;18.32;100.00;93174.41;5062178;28;20348;-86
2023/09/16 01:39:45;;;;;;;26.57;22.40;;;;;;;18.26;100.00;93176.41;5071884;28;20185;-91
2023/09/16 01:42:10;;;;;;;24.80;21.67;;;;;;;18.27;100.00;93182.50;5052516;28;20237;-89
2023/09/16 01:44:36;;;;;;;23.57;20.33;;;;;;;18.21;100.00;93183.75;5051341;28;20192;-90
2023/09/16 01:47:02;;;;;;;23.43;21.13;;;;;;;18.20;100.00;93187.44;5051435;28;20218;-90
2023/09/16 01:49:27;;;;;;;22.77;20.23;;;;;;;18.10;100.00;93187.78;5051482;28;20223;-91
2023/09/16 01:51:53;;;;;;;23.63;20.97;;;;;;;17.93;100.00;93182.47;5067039;28;20222;-90
2023/09/16 01:54:18;;;;;;;27.03;23.60;;;;;;;17.68;100.00;93207.75;5071742;28;20201;-87
2023/09/16 01:56:44;;;;;;;25.80;23.03;;;;;;;17.84;100.00;93200.19;5055800;28;20242;-91
2023/09/16 01:59:10;;;;;;;26.17;22.57;;;;;;;18.02;100.00;93213.09;5052124;28;20286;-91
2023/09/16 02:01:36;;;;;;;24.53;21.93;;;;;;;18.02;100.00;93207.03;5064419;28;20233;-90
2023/09/16 02:04:01;;;;;;;24.53;21.70;;;;;;;17.88;100.00;93174.69;5071579;28;20181;-87
2023/09/16 02:06:26;;;;;;;24.23;21.77;;;;;;;18.08;100.00;93213.72;5057884;28;20269;-89
2023/09/16 02:08:52;;;;;;;25.30;22.63;;;;;;;18.02;100.00;93221.03;5051259;28;20190;-90
2023/09/16 02:11:17;;;;;;;25.07;22.40;;;;;;;18.02;100.00;93214.97;5050495;28;20229;-86
2023/09/16 02:13:42;;;;;;;24.80;22.10;;;;;;;17.93;100.00;93207.00;5051148;28;20182;-90
2023/09/16 02:16:10;;;;;;;24.30;21.70;;;;;;;18.05;100.00;93223.06;5061160;28;20265;-90
2023/09/16 02:18:35;;;;;;;23.57;21.20;;;;;;;18.03;100.00;93219.94;5071267;28;20190;-89
2023/09/16 02:21:01;;;;;;;25.40;22.70;;;;;;;17.98;100.00;93211.41;5061315;28;20244;-89
2023/09/16 02:23:26;;;;;;;24.43;21.97;;;;;;;17.94;100.00;93213.09;5051453;28;20198;-90
2023/09/16 02:25:51;;;;;;;23.93;21.50;;;;;;;18.04;100.00;93210.16;5058066;28;20219;-90
2023/09/16 02:28:17;;;;;;;25.87;23.17;;;;;;;18.08;100.00;93209.22;5071246;28;20186;-91
2023/09/16 02:30:42;;;;;;;24.33;21.83;;;;;;;17.92;100.00;93200.19;5069995;28;20218;-86
2023/09/16 02:33:07;;;;;;;25.23;22.63;;;;;;;17.85;100.00;93201.72;5063032;28;20205;-89
2023/09/16 02:35:33;;;;;;;27.80;23.00;;;;;;;17.89;100.00;93219.28;5068179;28;20896;-90
2023/09/16 02:37:58;;;;;;;25.30;22.33;;;;;;;18.04;100.00;93226.00;5070825;28;20198;-90
2023/09/16 02:40:24;;;;;;;26.27;22.00;;;;;;;18.08;100.00;93221.66;5065897;28;20221;-91
2023/09/16 02:42:49;;;;;;;24.10;21.63;;;;;;;18.06;100.00;93223.81;5050387;28;20222;-91
2023/09/16 02:45:15;;;;;;;24.80;22.30;;;;;;;17.90;100.00;93204.22;5052509;28;20244;-85
2023/09/16 02:47:40;;;;;;;24.30;21.83;;;;;;;17.92;100.00;93228.44;5070316;28;20227;-89
2023/09/16 02:50:07;;;;;;;25.20;21.37;;;;;;;17.88;100.00;93232.81;5068347;28;20262;-90
2023/09/16 02:52:32;;;;;;;24.03;21.60;;;;;;;17.76;100.00;93241.31;5050390;28;20183;-91
2023/09/16 02:54:58;;;;;;;24.57;21.97;;;;;;;17.85;100.00;93238.72;5050179;28;20213;-90
2023/09/16 02:57:23;;;;;;;24.10;21.60;;;;;;;17.84;100.00;93237.16;5070119;28;20182;-91
2023/09/16 02:59:48;;;;;;;27.17;21.97;;;;;;;17.87;100.00;93245.22;5070169;28;20202;-89
2023/09/16 03:02:14;;;;;;;27.70;22.20;;;;;;;17.86;100.00;93242.91;5069415;28;20217;-92
2023/09/16 03:04:40;;;;;;;25.53;22.77;;;;;;;17.67;100.00;93242.38;5069121;28;20187;-89
2023/09/16 03:07:05;;;;;;;25.50;22.23;;;;;;;17.99;100.00;93244.66;5051699;28;20215;-89
2023/09/16 03:09:30;;;;;;;26.80;21.97;;;;;;;17.79;100.00;93243.34;5049787;28;20213;-90
2023/09/16 03:11:56;;;;;;;24.73;22.10;;;;;;;17.81;100.00;93243.81;5065981;28;20271;-85
2023/09/16 03:14:21;;;;;;;28.00;23.47;;;;;;;17.94;100.00;93258.00;5069628;28;20185;-88
2023/09/16 03:16:46;;;;;;;27.07;24.13;;;;;;;17.98;100.00;93243.84;5069188;28;20228;-88
2023/09/16 03:19:13;;;;;;;24.93;22.37;;;;;;;18.00;100.00;93256.75;5069354;28;20175;-90
2023/09/16 03:21:39;;;;;;;27.67;24.33;;;;;;;18.04;100.00;93249.78;5069302;28;20875;-89
2023/09/16 03:24:05;;;;;;;29.30;23.17;;;;;;;18.01;100.00;93239.84;5069224;28;20185;-89
2023/09/16 03:26:30;;;;;;;26.13;22.90;;;;;;;18.05;100.00;93249.50;5069118;28;20293;-88
2023/09/16 03:28:56;;;;;;;26.13;23.07;;;;;;;17.93;100.00;93235.31;5068487;28;20190;-90
2023/09/16 03:31:22;;;;;;;23.93;21.33;;;;;;;18.00;100.00;93251.47;5069277;28;20284;-90
2023/09/16 03:33:47;;;;;;;27.00;24.20;;;;;;;17.96;100.00;93253.94;5068904;28;20183;-89
2023/09/16 03:36:12;;;;;;;26.23;23.43;;;;;;;18.03;100.00;93253.50;5058290;28;20225;-87
2023/09/16 03:38:46;;;;;;;27.63;24.63;;;;;;;17.98;100.00;93245.75;5048313;28;20198;-89
2023/09/16 03:41:11;;;;;;;25.20;22.40;;;;;;;17.97;100.00;93262.66;5059414;28;20228;-89
2023/09/16 03:43:37;;;;;;;43.33;25.07;;;;;;;17.86;100.00;93256.91;5054679;28;20181;-90
2023/09/16 03:46:02;;;;;;;27.50;22.77;;;;;;;18.03;100.00;93264.06;5068753;28;20231;-90
2023/09/16 03:48:27;;;;;;;27.33;22.83;;;;;;;18.09;100.00;93276.84;5068747;28;20222;-91
2023/09/16 03:50:53;;;;;;;27.13;23.67;;;;;;;18.08;100.00;93271.88;5068807;28;20247;-88
2023/09/16 03:53:21;;;;;;;27.13;24.07;;;;;;;18.07;100.00;93265.03;5068788;28;20198;-90
2023/09/16 03:55:47;;;;;;;25.57;22.93;;;;;;;18.06;100.00;93266.09;5069066;28;20228;-90
2023/09/16 03:58:12;;;;;;;29.53;25.27;;;;;;;18.15;100.00;93280.88;5069056;28;20179;-91
2023/09/16 04:00:37;;;;;;;26.27;23.43;;;;;;;18.13;100.00;93277.00;5068824;28;20298;-89
2023/09/16 04:03:03;;;;;;;27.20;24.23;;;;;;;18.08;100.00;93285.06;5068926;28;20194;-89
2023/09/16 04:05:28;;;;;;;29.70;24.63;;;;;;;17.95;100.00;93286.75;5067563;28;20226;-90
2023/09/16 04:07:54;;;;;;;25.53;22.90;;;;;;;18.09;100.00;93305.91;5069068;28;20189;-88
2023/09/16 04:10:19;;;;;;;28.20;25.10;;;;;;;18.12;100.00;93307.16;5068721;28;20242;-88
2023/09/16 04:12:44;;;;;;;29.17;24.30;;;;;;;18.09;100.00;93307.75;5068847;28;20209;-88
2023/09/16 04:15:10;;;;;;;29.87;24.13;;;;;;;18.10;100.00;93306.69;5066783;28;20219;-89
2023/09/16 04:17:35;;;;;;;27.73;23.93;;;;;;;18.15;100.00;93309.22;5048821;28;20178;-84
2023/09/16 04:20:05;;;;;;;27.87;24.83;;;;;;;18.18;100.00;93308.59;5048703;28;20174;-86
2023/09/16 04:22:31;;;;;;;28.50;25.00;;;;;;;18.25;100.00;93311.53;5048520;28;20214;-88
2023/09/16 04:24:56;;;;;;;30.73;24.90;;;;;;;18.18;100.00;93321.81;5050341;28;20198;-79
2023/09/16 04:27:21;;;;;;;28.97;25.87;;;;;;;18.06;100.00;93321.59;5073690;28;20198;-92
2023/09/16 04:29:47;;;;;;;29.63;26.37;;;;;;;18.02;100.00;93318.03;5065723;28;20277;-90
2023/09/16 04:32:12;;;;;;;34.13;26.93;;;;;;;17.95;100.00;93304.47;5070911;28;20256;-75
2023/09/16 04:34:37;;;;;;;33.93;27.00;;;;;;;18.08;100.00;93306.22;5062330;28;20222;-74
2023/09/16 04:37:05;;;;;;;31.23;25.20;;;;;;;18.01;100.00;93303.25;5043970;28;20253;-74
2023/09/16 04:39:31;;;;;;;32.30;26.87;;;;;;;17.84;100.00;93303.97;5052242;28;20251;-79
2023/09/16 04:41:56;;;;;;;32.30;27.53;;;;;;;18.06;100.00;93311.03;5062407;28;20225;-78
2023/09/16 04:44:23;;;;;;;31.23;25.77;;;;;;;17.91;100.00;93300.88;5070164;28;20204;-79
2023/09/16 04:46:53;;;;;;;34.50;26.97;;;;;;;18.00;100.00;93305.13;5050146;28;20242;-79
2023/09/16 04:49:19;;;;;;;35.77;26.80;;;;;;;17.99;100.00;93297.50;5050126;28;20222;-79
2023/09/16 04:51:44;;;;;;;33.97;28.90;;;;;;;18.11;100.00;93310.88;5054234;28;20302;-76
2023/09/16 04:54:11;;;;;;;30.20;26.93;;;;;;;18.07;100.00;93302.03;5058562;28;20174;-78
2023/09/16 04:56:36;;;;;;;31.43;27.47;;;;;;;18.01;100.00;93298.72;5042900;28;20227;-79
2023/09/16 04:59:02;;;;;;;33.10;25.70;;;;;;;18.01;100.00;93305.91;5047510;28;20188;-78
2023/09/16 05:01:29;;;;;;;31.13;27.43;;;;;;;17.75;100.00;93266.19;5045991;28;20232;-79
2023/09/16 05:03:55;;;;;;;31.77;26.60;;;;;;;17.95;100.00;93307.09;5043235;28;20247;-80
2023/09/16 05:06:20;;;;;;;35.83;28.87;;;;;;;17.79;100.00;93313.91;5050265;28;20218;-78
2023/09/16 05:08:45;;;;;;;37.63;28.07;;;;;;;17.94;100.00;93322.19;5065257;28;20197;-78
2023/09/16 05:11:11;;;;;;;30.63;26.10;;;;;;;17.99;100.00;93318.63;5067578;28;20225;-80
2023/09/16 05:13:36;;;;;;;35.10;28.83;;;;;;;17.99;100.00;93321.28;5092863;28;20201;-77
2023/09/16 05:16:03;;;;;;;35.90;26.97;;;;;;;17.92;100.00;93318.28;5069626;28;20237;-79
2023/09/16 05:18:28;;;;;;;33.13;27.67;;;;;;;17.94;100.00;93316.91;5061462;28;20269;-81
2023/09/16 05:20:54;;;;;;;31.63;28.20;;;;;;;17.83;100.00;93333.31;5056794;28;20222;-80
2023/09/16 05:23:23;;;;;;;31.80;26.57;;;;;;;17.67;100.00;93306.53;5058642;28;20202;-79
2023/09/16 05:25:48;;;;;;;30.43;25.60;;;;;;;17.97;100.00;93342.72;5060167;28;20230;-78
2023/09/16 05:28:14;;;;;;;30.13;26.30;;;;;;;17.97;100.00;93342.72;5062906;28;20198;-84
2023/09/16 05:30:42;;;;;;;35.67;27.50;;;;;;;18.03;100.00;93338.06;5059385;28;20230;-86
2023/09/16 05:33:09;;;;;;;27.83;23.27;;;;;;;17.95;100.00;93318.47;5065074;28;20291;-88
2023/09/16 05:35:34;;;;;;;25.10;22.53;;;;;;;17.77;100.00;93293.06;5063562;28;20226;-82
2023/09/16 05:38:00;;;;;;;25.13;22.57;;;;;;;17.92;100.00;93318.28;5044643;28;20237;-85
2023/09/16 05:40:25;;;;;;;23.20;20.70;;;;;;;17.86;100.00;93324.78;5046858;28;20230;-80
2023/09/16 05:42:50;;;;;;;23.23;20.67;;;;;;;17.82;100.00;93329.91;5061147;28;20249;-78
2023/09/16 05:45:16;;;;;;;21.97;19.80;;;;;;;17.54;100.00;93331.19;5056314;28;20234;-79
2023/09/16 05:47:42;;;;;;;22.73;20.37;;;;;;;17.67;100.00;93345.38;5050688;28;20278;-78
2023/09/16 05:50:08;;;;;;;20.60;18.50;;;;;;;17.70;100.00;93358.00;5051638;28;20195;-80
2023/09/16 05:52:33;;;;;;;19.10;17.20;;;;;;;17.62;100.00;93348.16;5062227;28;20196;-77
2023/09/16 05:54:58;;;;;;;18.53;16.53;;;;;;;17.89;100.00;93355.88;5057710;28;20217;-79
2023/09/16 05:57:24;;;;;;;17.33;15.80;;;;;;;17.88;100.00;93347.19;5047289;28;20281;-80
2023/09/16 05:59:49;;;;;;;18.30;16.50;;;;;;;17.78;100.00;93336.88;5038958;28;20199;-80
2023/09/16 06:02:17;;;;;;;16.77;15.07;;;;;;;17.88;100.00;93343.78;5043549;28;20255;-78
2023/09/16 06:04:42;;;;;;;15.27;13.97;;;;;;;17.82;100.00;93347.63;5040143;28;20189;-79
2023/09/16 06:07:07;;;;;;;15.33;13.83;;;;;;;17.79;100.00;93359.56;5057051;28;20221;-81
2023/09/16 06:09:33;;;;;;;14.70;13.57;;;;;;;17.81;100.00;93364.53;5050337;28;20219;-85
2023/09/16 06:11:58;;;;;;;12.03;10.90;;;;;;;17.42;100.00;93323.00;5058007;28;20234;-81
2023/09/16 06:14:24;;;;;;;12.23;11.43;;;;;;;17.54;100.00;93349.69;5051775;28;20225;-82
2023/09/16 06:16:49;;;;;;;13.27;12.07;;;;;;;17.59;100.00;93352.97;5059477;28;20232;-80
2023/09/16 06:19:14;;;;;;;10.67;9.37;;;;;;;17.60;100.00;93354.50;5068386;28;20204;-85
2023/09/16 06:21:40;;;;;;;10.37;9.57;;;;;;;17.47;100.00;93331.63;5061139;28;20270;-88
2023/09/16 06:24:05;;;;;;;10.07;9.27;;;;;;;17.66;100.00;93352.53;5059454;28;20178;-80
2023/09/16 06:26:31;;;;;;;9.20;8.50;;;;;;;17.56;100.00;93343.00;5040419;28;20222;-79
2023/09/16 06:28:56;;;;;;;10.53;9.53;;;;;;;17.54;100.00;93336.47;5044761;28;20217;-80
2023/09/16 06:31:21;;;;;;;17.60;16.37;;;;;;;17.47;100.00;93339.53;5045856;28;20229;-77
2023/09/16 06:33:49;;;;;;;12.33;11.17;;;;;;;17.37;100.00;93342.38;5050618;28;20209;-78
2023/09/16 06:36:14;;;;;;;13.40;12.30;;;;;;;17.40;100.00;93344.44;5085106;28;20229;-78
2023/09/16 06:38:40;;;;;;;18.03;16.40;;;;;;;17.56;100.00;93345.66;5057778;28;20208;-80
2023/09/16 06:41:05;;;;;;;16.43;14.80;;;;;;;17.50;100.00;93346.06;5062616;28;20221;-79
2023/09/16 06:43:31;;;;;;;17.40;14.07;;;;;;;17.45;100.00;93346.19;5060561;28;20201;-77
2023/09/16 06:45:56;;;;;;;14.43;12.73;;;;;;;17.49;100.00;93355.84;5063987;28;20251;-82
2023/09/16 06:48:21;;;;;;;16.53;14.93;;;;;;;17.05;100.00;93363.75;5063523;28;20290;-80
2023/09/16 06:50:47;;;;;;;15.07;13.77;;;;;;;17.17;100.00;93366.63;5057479;28;20230;-81
2023/09/16 06:53:12;;;;;;;14.83;13.43;;;;;;;17.53;100.00;93370.00;5046108;28;20178;-80
2023/09/16 06:55:37;;;;;;;15.10;13.47;;;;;;;17.71;100.00;93365.63;5048466;28;20221;-81
2023/09/16 06:58:04;;;;;;;15.00;13.43;;;;;;;18.00;100.00;93378.31;5055313;28;20205;-81
2023/09/16 07:00:32;;;;;;;16.13;14.63;;;;;;;17.90;100.00;93378.59;5063711;28;20229;-77
2023/09/16 07:02:58;;;;;;;16.67;13.10;;;;;;;18.15;100.00;93389.25;5034353;28;20230;-80
2023/09/16 07:05:24;;;;;;;13.53;12.37;;;;;;;18.42;100.00;93385.66;5037137;28;20654;-88
2023/09/16 07:07:52;;;;;;;17.47;15.80;;;;;;;18.44;100.00;93372.91;5036896;28;20215;-85
2023/09/16 07:10:18;;;;;;;15.03;13.53;;;;;;;18.58;100.00;93386.78;5035001;28;20230;-81
2023/09/16 07:12:43;;;;;;;19.90;15.80;;;;;;;18.63;100.00;93373.41;5054013;28;20188;-83
2023/09/16 07:15:09;;;;;;;14.03;12.70;;;;;;;18.59;100.00;93375.91;5058445;28;20219;-81
2023/09/16 07:17:35;;;;;;;14.87;13.57;;;;;;;18.57;100.00;93393.13;5066284;28;20188;-83
2023/09/16 07:20:01;;;;;;;13.47;12.20;;;;;;;18.69;100.00;93377.47;5059474;28;20212;-84
2023/09/16 07:22:26;;;;;;;12.00;11.00;;;;;;;18.69;100.00;93380.13;5047030;28;20247;-83
2023/09/16 07:24:51;;;;;;;15.30;13.20;;;;;;;18.79;100.00;93371.88;5037507;28;20198;-79
2023/09/16 07:27:17;;;;;;;13.93;12.73;;;;;;;18.53;100.00;93377.13;5055825;28;20299;-77
2023/09/16 07:29:43;;;;;;;15.83;14.50;;;;;;;18.63;100.00;93371.53;5051183;28;20199;-89
2023/09/16 07:32:08;;;;;;;14.90;13.53;;;;;;;18.55;100.00;93384.75;5065229;28;20257;-88
2023/09/16 07:34:33;;;;;;;21.90;18.97;;;;;;;18.92;100.00;93373.59;5060834;28;20188;-80
2023/09/16 07:36:59;;;;;;;25.80;19.77;;;;;;;19.11;100.00;93371.44;5043789;28;20238;-83
2023/09/16 07:39:25;;;;;;;26.60;20.27;;;;;;;19.18;100.00;93363.78;5048248;28;20225;-86
2023/09/16 07:41:50;;;;;;;21.13;19.03;;;;;;;19.21;100.00;93373.00;5058779;28;20216;-87
2023/09/16 07:44:15;;;;;;;20.30;18.10;;;;;;;19.28;100.00;93373.31;5058330;28;20192;-87
2023/09/16 07:46:41;;;;;;;25.87;20.77;;;;;;;19.16;100.00;93377.34;5066836;28;20243;-90
2023/09/16 07:49:06;;;;;;;23.17;20.80;;;;;;;19.00;100.00;93394.00;5064674;28;20235;-85
2023/09/16 07:51:31;;;;;;;25.67;21.87;;;;;;;19.11;100.00;93392.59;5058669;28;20226;-89
2023/09/16 07:53:57;;;;;;;28.27;22.53;;;;;;;19.21;100.00;93392.28;5066680;28;20175;-82
2023/09/16 07:56:22;;;;;;;25.07;21.90;;;;;;;19.32;100.00;93390.91;5056178;28;20317;-90
2023/09/16 07:58:48;;;;;;;28.53;23.87;;;;;;;19.35;100.00;93392.94;5062235;28;20240;-81
2023/09/16 08:01:13;;;;;;;28.97;25.00;;;;;;;19.11;100.00;93392.59;5064152;28;20235;-85
2023/09/16 08:03:39;;;;;;;31.50;25.67;;;;;;;18.88;100.00;93375.28;5070256;28;20195;-90
2023/09/16 08:06:05;;;;;;;31.67;28.27;;;;;;;18.80;100.00;93391.97;5062158;28;20623;-87
2023/09/16 08:08:30;;;;;;;30.03;26.00;;;;;;;18.80;100.00;93391.97;5052119;28;20186;-86
2023/09/16 08:10:55;;;;;;;33.47;27.27;;;;;;;18.85;100.00;93394.44;5057114;28;20222;-89
2023/09/16 08:13:21;;;;;;;31.57;28.07;;;;;;;18.74;100.00;93399.25;5052422;28;20251;-85
2023/09/16 08:15:46;;;;;;;32.60;27.77;;;;;;;18.71;100.00;93399.06;5045357;28;20238;-83
2023/09/16 08:18:12;;;;;;;31.80;26.60;;;;;;;18.55;100.00;93387.41;5065125;28;20189;-84
2023/09/16 08:20:37;;;;;;;32.67;27.97;;;;;;;18.59;100.00;93401.56;5066877;28;20246;-84
2023/09/16 08:23:03;;;;;;;37.00;29.73;;;;;;;18.81;100.00;93398.78;5057278;28;20184;-84
2023/09/16 08:25:28;;;;;;;34.17;27.70;;;;;;;19.04;100.00;93392.28;5058169;28;20237;-79
2023/09/16 08:27:53;;;;;;;30.57;25.93;;;;;;;19.37;100.00;93390.75;5068056;28;20193;-85
2023/09/16 08:30:20;;;;;;;32.57;28.20;;;;;;;19.56;100.00;93387.75;5070737;28;20227;-78
2023/09/16 08:32:46;;;;;;;29.57;25.53;;;;;;;19.70;100.00;93391.00;5060273;28;20172;-83
2023/09/16 08:35:11;;;;;;;31.70;25.47;;;;;;;19.64;100.00;93390.41;5052750;28;20314;-78
2023/09/16 08:37:36;;;;;;;30.67;25.90;;;;;;;19.61;100.00;93396.31;5062908;28;20183;-76
2023/09/16 08:40:02;;;;;;;28.67;25.13;;;;;;;19.89;100.00;93404.69;5062100;28;20181;-81
2023/09/16 08:42:43;;;;;;;30.90;25.70;;;;;;;19.76;100.00;93408.31;5056210;28;20183;-80
2023/09/16 08:45:14;;;;;;;34.50;27.27;;;;;;;20.07;100.00;93409.63;5066615;28;20211;-80
2023/09/16 08:47:43;;;;;;;28.93;25.93;;;;;;;20.47;100.00;93421.50;5071273;28;20223;-78
2023/09/16 08:50:10;;;;;;;33.50;27.57;;;;;;;20.43;100.00;93425.91;5056227;28;20216;-80
2023/09/16 08:52:59;;;;;;;34.37;27.83;;;;;;;20.49;100.00;93427.28;5071069;28;20197;-83
2023/09/16 08:55:24;;;;;;;33.10;29.30;;;;;;;20.51;100.00;93443.63;5062275;28;20313;-83
2023/09/16 08:57:53;;;;;;;32.13;28.73;;;;;;;20.40;100.00;93442.47;5069616;28;20183;-82
2023/09/16 09:00:19;;;;;;;30.13;26.93;;;;;;;20.30;100.00;93440.16;5069679;28;20326;-84
2023/09/16 09:02:45;;;;;;;30.60;26.93;;;;;;;20.12;100.00;93449.25;5071378;28;20201;-84
2023/09/16 09:05:11;;;;;;;30.13;26.87;;;;;;;20.23;100.00;93436.44;5066914;28;20191;-87
2023/09/16 09:07:39;;;;;;;30.93;27.70;;;;;;;20.52;100.00;93442.56;5060864;23;20248;-84
2023/09/16 09:10:05;;;;;;;34.10;29.10;;;;;;;20.02;100.00;93435.53;5031763;28;20283;-78
2023/09/16 09:12:33;;;;;;;38.00;30.73;;;;;;;20.16;100.00;93434.28;5035390;28;20189;-82
2023/09/16 09:15:04;;;;;;;30.20;27.00;;;;;;;20.61;100.00;93443.28;5030615;28;20216;-82
2023/09/16 09:17:36;;;;;;;34.30;29.23;;;;;;;20.68;100.00;93445.47;5047970;28;20184;-82
2023/09/16 09:20:08;;;;;;;35.23;28.17;;;;;;;20.95;100.00;93430.94;5038739;28;20248;-79
2023/09/16 09:22:37;;;;;;;28.30;25.33;;;;;;;20.98;100.00;93444.38;5029891;28;20180;-79
2023/09/16 09:25:03;;;;;;;30.47;24.90;;;;;;;20.69;100.00;93447.00;5013937;28;20205;-84
2023/09/16 09:27:28;;;;;;;28.43;24.87;;;;;;;20.75;100.00;93445.72;5042194;28;20195;-87
2023/09/16 09:29:54;;;;;;;28.00;24.97;;;;;;;20.49;100.00;93437.09;5031166;28;20190;-85
2023/09/16 09:32:21;;;;;;;25.85;23.15;;;;;;;20.76;100.00;93438.53;5049796;28;20215;-89
2023/09/16 09:34:46;;;;;;;25.45;22.33;;;;;;;20.86;99.48;93435.53;5048475;28;20213;-89
2023/09/16 09:37:16;;;;;;;26.88;22.08;;;;;;;20.80;100.00;93431.47;5050235;28;20235;-88
2023/09/16 09:39:42;;;;;;;31.40;23.47;;;;;;;21.10;100.00;93436.50;5044437;28;20218;-81
2023/09/16 09:42:07;;;;;;;28.83;23.05;;;;;;;20.73;100.00;93427.47;5050019;28;20232;-89
2023/09/16 09:44:34;;;;;;;27.33;24.50;;;;;;;20.83;100.00;93425.53;5052537;28;20182;-87
2023/09/16 09:47:00;;;;;;;26.70;24.10;;;;;;;20.68;100.00;93427.63;5049441;28;20204;-89
2023/09/16 09:49:26;;;;;;;27.52;23.10;;;;;;;20.87;100.00;93429.91;5048554;28;20591;-85
2023/09/16 09:51:52;;;;;;;29.35;24.15;;;;;;;20.83;100.00;93407.72;5034537;28;20194;-87
2023/09/16 09:54:18;;;;;;;30.13;22.58;;;;;;;21.05;100.00;93426.06;5031572;28;21177;-83
2023/09/16 09:56:43;;;;;;;23.70;21.40;;;;;;;21.16;100.00;93415.81;5047663;28;20214;-86
2023/09/16 09:59:09;;;;;;;21.05;19.05;;;;;;;21.45;95.81;93437.00;5054785;28;20218;-84
2023/09/16 10:01:35;;;;;;;20.75;18.58;;;;;;;21.46;92.93;93443.88;5048379;28;20239;-84
2023/09/16 10:04:03;;;;;;;20.83;18.67;;;;;;;21.54;96.14;93435.06;5045099;28;20212;-85
2023/09/16 10:06:29;;;;;;;25.40;21.00;;;;;;;21.15;100.00;93428.34;5048948;28;20234;-84
2023/09/16 10:08:55;;;;;;;24.35;19.50;;;;;;;20.97;100.00;93432.19;5042852;28;20229;-83
2023/09/16 10:11:21;;;;;;;22.27;20.23;;;;;;;21.22;100.00;93423.28;5031084;28;20285;-88
2023/09/16 10:13:48;;;;;;;26.08;18.88;;;;;;;21.55;98.67;93432.09;5048320;28;20255;-82
2023/09/16 10:16:13;;;;;;;24.08;20.63;;;;;;;21.76;95.94;93432.84;5050430;28;20295;-88
2023/09/16 10:18:39;;;;;;;22.60;19.58;;;;;;;22.09;94.93;93432.84;5053606;28;20225;-91
2023/09/16 10:21:07;;;;;;;20.70;18.88;;;;;;;22.07;93.95;93425.19;5047209;28;20263;-83
2023/09/16 10:23:33;;;;;;;20.27;18.27;;;;;;;22.41;90.99;93424.06;5048820;28;20216;-88
2023/09/16 10:25:58;;;;;;;21.33;19.25;;;;;;;22.41;89.10;93425.94;5045747;28;21039;-86
2023/09/16 10:28:25;;;;;;;21.83;19.45;;;;;;;21.73;93.63;93419.41;5048100;28;20209;-87
2023/09/16 10:30:51;;;;;;;23.83;20.08;;;;;;;21.80;95.19;93411.72;5046966;28;20196;-79
2023/09/16 10:33:18;;;;;;;21.42;19.35;;;;;;;22.03;93.94;93421.66;5043253;28;20184;-79
2023/09/16 10:35:43;;;;;;;20.38;18.45;;;;;;;21.62;92.92;93415.63;5047777;28;20207;-79
2023/09/16 10:38:11;;;;;;;19.38;17.35;;;;;;;21.01;97.01;93416.41;5033428;28;20191;-80
2023/09/16 10:40:37;;;;;;;21.02;18.92;;;;;;;20.52;99.93;93410.72;5043214;28;20213;-76
2023/09/16 10:43:04;;;;;;;21.73;19.67;;;;;;;20.66;100.00;93410.50;5045940;28;20228;-78
2023/09/16 10:45:31;;;;;;;22.52;19.33;;;;;;;20.35;100.00;93408.16;5032833;28;20180;-78
2023/09/16 10:47:59;;;;;;;22.92;20.38;;;;;;;20.25;100.00;93410.38;5038142;28;20226;-77
2023/09/16 10:50:28;;;;;;;20.95;18.85;;;;;;;20.13;100.00;93405.72;5043610;28;20196;-78
2023/09/16 10:53:10;;;;;;;21.42;18.75;;;;;;;20.01;100.00;93405.59;5044893;28;20297;-78
2023/09/16 10:55:50;;;;;;;21.85;19.67;;;;;;;20.09;100.00;93396.84;5041863;28;20208;-79
2023/09/16 10:58:29;;;;;;;24.55;20.00;;;;;;;19.57;100.00;93390.09;5036151;28;20221;-78
2023/09/16 11:00:57;;;;;;;22.45;20.25;;;;;;;19.80;100.00;93394.09;5047057;28;20244;-81
2023/09/16 11:03:39;;;;;;;21.75;19.42;;;;;;;19.86;100.00;93381.47;5042527;28;20206;-82
2023/09/16 11:06:05;;;;;;;25.20;20.55;;;;;;;20.10;100.00;93392.28;5035558;28;20241;-80